Time;durP1;ratioP1;P1;durP2;ratioP2;P2;SDS_P1;SDS_P2;PMS_P1;PMS_P2;Temp;Humidity;BMP_temperature;BMP_pressure;BME280_temperature;BME280_humidity;BME280_pressure;Samples;Min_cycle;Max_cycle;Signal;HPM_P1;HPM_P2
2022/03/18 00:00:38;;;;;;;5.88;2.78;;;20.20;48.70;;;;;;4993320;28;20053;-59
2022/03/18 00:03:03;;;;;;;7.30;2.75;;;20.20;48.80;;;;;;4993921;28;20061;-59
2022/03/18 00:05:29;;;;;;;6.60;2.72;;;20.20;48.70;;;;;;4994171;28;20046;-59
2022/03/18 00:07:54;;;;;;;5.88;2.65;;;20.10;48.70;;;;;;4993553;28;20042;-59
2022/03/18 00:10:20;;;;;;;6.85;2.53;;;20.10;48.60;;;;;;4993747;28;20042;-59
2022/03/18 00:12:46;;;;;;;8.80;2.88;;;20.10;48.60;;;;;;4994042;28;20046;-59
2022/03/18 00:15:12;;;;;;;7.05;2.70;;;20.10;48.60;;;;;;4992870;28;20157;-59
2022/03/18 00:17:38;;;;;;;6.18;2.72;;;20.10;48.60;;;;;;4993852;28;20045;-59
2022/03/18 00:20:05;;;;;;;6.75;3.05;;;20.10;48.50;;;;;;4993711;28;20042;-59
2022/03/18 00:22:30;;;;;;;5.78;2.85;;;20.10;48.50;;;;;;4992506;28;20394;-59
2022/03/18 00:24:56;;;;;;;7.70;2.65;;;20.10;48.50;;;;;;5008838;28;20096;-59
2022/03/18 00:27:22;;;;;;;7.55;2.90;;;20.00;48.40;;;;;;4993265;28;20054;-59
2022/03/18 00:29:48;;;;;;;6.93;2.47;;;20.00;48.40;;;;;;4992787;28;20073;-59
2022/03/18 00:32:13;;;;;;;8.75;2.97;;;20.00;48.40;;;;;;4993033;28;20046;-59
2022/03/18 00:34:39;;;;;;;5.47;2.50;;;20.00;48.40;;;;;;4993274;28;20039;-59
2022/03/18 00:37:05;;;;;;;6.95;2.88;;;20.00;48.30;;;;;;4992548;28;20478;-59
2022/03/18 00:39:31;;;;;;;6.18;2.95;;;20.00;48.30;;;;;;4993330;28;20058;-59
2022/03/18 00:41:56;;;;;;;6.15;2.72;;;20.00;48.30;;;;;;4993397;28;20050;-59
2022/03/18 00:44:25;;;;;;;5.88;2.83;;;20.00;48.30;;;;;;4992466;28;20046;-59
2022/03/18 00:46:53;;;;;;;7.82;3.17;;;19.90;48.20;;;;;;4993591;28;20050;-59
2022/03/18 00:52:05;;;;;;;4.35;2.17;;;19.90;48.20;;;;;;4992723;28;20373;-59
2022/03/18 00:54:32;;;;;;;6.95;2.75;;;19.90;48.30;;;;;;4993145;28;20050;-59
2022/03/18 00:56:57;;;;;;;6.70;2.47;;;19.90;48.20;;;;;;4992431;28;20050;-59
2022/03/18 00:59:23;;;;;;;5.82;2.50;;;19.90;48.20;;;;;;4993170;28;20046;-59
2022/03/18 01:01:52;;;;;;;5.45;2.65;;;19.90;48.30;;;;;;4993176;28;20043;-59
2022/03/18 01:04:19;;;;;;;5.43;2.20;;;19.90;48.20;;;;;;4992411;28;20134;-59
2022/03/18 01:06:45;;;;;;;5.60;2.45;;;19.80;48.10;;;;;;4992953;28;20046;-59
2022/03/18 01:09:10;;;;;;;6.25;2.40;;;19.90;48.10;;;;;;4992996;28;20061;-59
2022/03/18 01:11:35;;;;;;;4.25;2.20;;;19.90;48.10;;;;;;4992341;28;20410;-59
2022/03/18 01:14:01;;;;;;;5.03;2.72;;;19.80;48.00;;;;;;4993334;28;20042;-59
2022/03/18 01:16:27;;;;;;;6.30;2.22;;;19.80;48.00;;;;;;4992604;28;20053;-59
2022/03/18 01:18:52;;;;;;;5.13;2.00;;;19.80;48.00;;;;;;4992453;28;20092;-59
2022/03/18 01:21:18;;;;;;;5.30;2.15;;;19.80;48.00;;;;;;4992946;28;20081;-59
2022/03/18 01:23:43;;;;;;;5.10;2.05;;;19.80;48.00;;;;;;4992900;28;20062;-59
2022/03/18 01:26:09;;;;;;;4.72;2.50;;;19.80;47.90;;;;;;4991235;28;20525;-59
2022/03/18 01:28:34;;;;;;;4.88;2.20;;;19.80;47.90;;;;;;4992763;28;20082;-59
2022/03/18 01:31:00;;;;;;;4.93;2.03;;;19.80;47.90;;;;;;4993081;28;20085;-59
2022/03/18 01:33:25;;;;;;;5.78;2.65;;;19.70;47.90;;;;;;4992578;28;20092;-59
2022/03/18 01:35:51;;;;;;;6.60;2.20;;;19.70;47.80;;;;;;4996934;28;20046;-59
2022/03/18 01:38:16;;;;;;;6.70;2.05;;;19.70;47.80;;;;;;4996457;28;20043;-59
2022/03/18 01:40:42;;;;;;;6.20;2.17;;;19.70;47.80;;;;;;4995800;28;20156;-59
2022/03/18 01:43:11;;;;;;;4.90;2.13;;;19.70;47.80;;;;;;4996411;28;20042;-59
2022/03/18 01:45:37;;;;;;;5.15;2.00;;;19.70;47.80;;;;;;4996128;28;20045;-59
2022/03/18 01:48:03;;;;;;;4.80;2.15;;;19.70;47.80;;;;;;4996667;28;20046;-59
2022/03/18 01:50:30;;;;;;;4.63;2.38;;;19.70;47.70;;;;;;4996632;28;20042;-59
2022/03/18 01:52:55;;;;;;;5.30;1.98;;;19.70;47.70;;;;;;4995703;28;20054;-59
2022/03/18 01:55:21;;;;;;;4.70;2.20;;;19.70;47.70;;;;;;5011157;28;20058;-59
2022/03/18 01:57:46;;;;;;;5.50;1.95;;;19.60;47.70;;;;;;4996555;28;20104;-59
2022/03/18 02:00:13;;;;;;;5.18;2.05;;;19.70;47.60;;;;;;4997461;28;20050;-59
2022/03/18 02:02:38;;;;;;;6.47;2.05;;;19.60;47.60;;;;;;5031099;28;20117;-59
2022/03/18 02:05:05;;;;;;;6.07;2.10;;;19.60;47.60;;;;;;5016038;28;20188;-59
2022/03/18 02:07:31;;;;;;;4.63;2.10;;;19.60;47.50;;;;;;5030454;28;20037;-59
2022/03/18 02:09:56;;;;;;;4.57;2.00;;;19.60;47.60;;;;;;5015659;28;20382;-59
2022/03/18 02:12:22;;;;;;;4.93;1.90;;;19.60;47.60;;;;;;5015387;28;20104;-59
2022/03/18 02:14:47;;;;;;;5.75;2.10;;;19.60;47.60;;;;;;5014171;28;20050;-59
2022/03/18 02:17:14;;;;;;;4.93;2.03;;;19.60;47.60;;;;;;5014899;28;20136;-59
2022/03/18 02:19:41;;;;;;;5.95;1.92;;;19.60;47.60;;;;;;5015569;28;20100;-59
2022/03/18 02:22:10;;;;;;;5.82;2.10;;;19.60;47.60;;;;;;5014535;28;20042;-59
2022/03/18 02:24:37;;;;;;;5.88;1.83;;;19.60;47.50;;;;;;5015649;28;20041;-59
2022/03/18 02:27:03;;;;;;;5.10;2.40;;;19.60;47.50;;;;;;5015420;28;20038;-59
2022/03/18 02:29:29;;;;;;;5.05;2.05;;;19.60;47.50;;;;;;5014904;28;20052;-59
2022/03/18 02:31:54;;;;;;;5.57;1.85;;;19.50;47.50;;;;;;5014234;28;20038;-59
2022/03/18 02:34:20;;;;;;;3.83;1.77;;;19.60;47.50;;;;;;5015027;28;20050;-59
2022/03/18 02:36:45;;;;;;;5.18;2.00;;;19.50;47.50;;;;;;5014678;28;20368;-59
2022/03/18 02:39:11;;;;;;;6.00;2.03;;;19.50;47.40;;;;;;5014807;28;20137;-59
2022/03/18 02:41:36;;;;;;;4.80;2.10;;;19.50;47.40;;;;;;5015106;28;20501;-59
2022/03/18 02:44:02;;;;;;;4.88;1.83;;;19.50;47.40;;;;;;5014249;28;20125;-59
2022/03/18 02:46:32;;;;;;;3.85;1.52;;;19.60;47.40;;;;;;5015212;28;20402;-59
2022/03/18 02:48:59;;;;;;;4.20;1.67;;;19.50;47.30;;;;;;5014231;28;20053;-59
2022/03/18 02:51:24;;;;;;;4.47;1.85;;;19.50;47.40;;;;;;5014778;28;20042;-59
2022/03/18 02:53:51;;;;;;;4.35;2.20;;;19.50;47.40;;;;;;5014622;28;20084;-59
2022/03/18 02:56:17;;;;;;;4.47;1.55;;;19.60;47.30;;;;;;5012482;28;20057;-58
2022/03/18 02:58:42;;;;;;;5.20;1.90;;;19.60;47.30;;;;;;5015127;28;20129;-59
2022/03/18 03:01:08;;;;;;;3.38;1.58;;;19.60;47.40;;;;;;5014274;28;20053;-59
2022/03/18 03:03:34;;;;;;;4.85;1.83;;;19.60;47.30;;;;;;5013206;28;20176;-59
2022/03/18 03:08:43;;;;;;;4.25;1.73;;;19.60;47.40;;;;;;5012673;28;20057;-59
2022/03/18 03:11:09;;;;;;;3.47;1.75;;;19.60;47.40;;;;;;5014029;28;20050;-59
2022/03/18 03:13:34;;;;;;;3.47;1.48;;;19.70;47.40;;;;;;5014500;28;20520;-59
2022/03/18 03:16:01;;;;;;;5.10;1.83;;;19.60;47.20;;;;;;5014697;28;20068;-59
2022/03/18 03:18:28;;;;;;;3.20;1.50;;;19.70;47.20;;;;;;5013339;28;20382;-59
2022/03/18 03:20:54;;;;;;;3.97;1.70;;;19.70;47.20;;;;;;5014281;28;20057;-59
2022/03/18 03:23:21;;;;;;;2.95;1.50;;;19.70;47.10;;;;;;5014101;28;20120;-59
2022/03/18 03:25:48;;;;;;;4.72;1.65;;;19.70;47.10;;;;;;5013988;28;20053;-59
2022/03/18 03:28:14;;;;;;;3.87;2.03;;;19.70;47.10;;;;;;5014264;28;20060;-59
2022/03/18 03:30:40;;;;;;;4.15;1.52;;;19.70;47.10;;;;;;5013871;28;20304;-59
2022/03/18 03:33:05;;;;;;;5.43;1.70;;;19.70;47.00;;;;;;5013411;28;20077;-59
2022/03/18 03:35:31;;;;;;;2.63;1.10;;;19.80;47.10;;;;;;5014149;28;20056;-59
2022/03/18 03:37:56;;;;;;;5.35;1.80;;;19.80;47.00;;;;;;5013998;28;20096;-59
2022/03/18 03:40:22;;;;;;;3.60;1.70;;;19.80;47.00;;;;;;5012933;28;20453;-59
2022/03/18 03:42:47;;;;;;;5.25;1.60;;;19.70;46.90;;;;;;5014139;28;20042;-59
2022/03/18 03:45:13;;;;;;;5.28;1.70;;;19.70;46.90;;;;;;5013132;28;20052;-59
2022/03/18 03:47:39;;;;;;;3.85;1.40;;;19.80;47.00;;;;;;5014024;28;20040;-59
2022/03/18 03:50:06;;;;;;;4.90;1.90;;;19.80;47.00;;;;;;5013679;28;20042;-59
2022/03/18 03:52:32;;;;;;;6.22;1.65;;;19.80;47.00;;;;;;5013185;28;20481;-59
2022/03/18 03:54:57;;;;;;;4.93;1.45;;;19.80;47.00;;;;;;5013659;28;20054;-59
2022/03/18 03:57:23;;;;;;;4.60;1.90;;;19.80;46.90;;;;;;5012746;28;20626;-59
2022/03/18 03:59:48;;;;;;;3.83;1.50;;;19.80;46.90;;;;;;5013240;28;20046;-59
2022/03/18 04:02:14;;;;;;;3.90;1.65;;;19.90;46.90;;;;;;5013702;28;20462;-59
2022/03/18 04:04:39;;;;;;;4.07;1.50;;;19.80;46.90;;;;;;5013760;28;20173;-59
2022/03/18 04:07:05;;;;;;;3.67;1.85;;;19.80;46.90;;;;;;5012829;28;20046;-59
2022/03/18 04:09:30;;;;;;;3.97;1.48;;;19.90;46.90;;;;;;5013522;28;20038;-59
2022/03/18 04:11:56;;;;;;;4.35;1.73;;;19.90;46.90;;;;;;5013284;28;20053;-59
2022/03/18 04:14:22;;;;;;;4.03;1.25;;;19.90;46.90;;;;;;5012532;28;20049;-59
2022/03/18 04:16:47;;;;;;;3.58;1.52;;;19.90;46.90;;;;;;5013740;28;20473;-59
2022/03/18 04:19:13;;;;;;;3.50;1.60;;;19.90;46.80;;;;;;5013260;28;20078;-59
2022/03/18 04:21:38;;;;;;;4.40;1.60;;;19.90;46.80;;;;;;5012757;28;20052;-59
2022/03/18 04:24:04;;;;;;;3.53;1.50;;;19.90;46.80;;;;;;5013302;28;20042;-59
2022/03/18 04:26:30;;;;;;;4.03;1.50;;;19.90;46.70;;;;;;5013222;28;20037;-59
2022/03/18 04:28:55;;;;;;;3.83;1.50;;;19.90;46.80;;;;;;5012686;28;20084;-58
2022/03/18 04:31:21;;;;;;;4.28;1.52;;;19.90;46.80;;;;;;5013091;28;20133;-59
2022/03/18 04:33:46;;;;;;;5.25;1.60;;;19.90;46.70;;;;;;5013365;28;20030;-59
2022/03/18 04:36:12;;;;;;;4.13;1.40;;;19.90;46.80;;;;;;5011930;28;20049;-59
2022/03/18 04:38:37;;;;;;;3.22;1.30;;;19.90;46.70;;;;;;5013098;28;20100;-59
2022/03/18 04:41:03;;;;;;;6.00;1.83;;;19.90;46.70;;;;;;5012565;28;20160;-59
2022/03/18 04:43:29;;;;;;;4.72;1.50;;;19.90;46.70;;;;;;5012344;28;20046;-59
2022/03/18 04:45:54;;;;;;;4.90;1.63;;;20.00;46.80;;;;;;5013294;28;20049;-59
2022/03/18 04:48:20;;;;;;;5.53;1.77;;;20.00;46.80;;;;;;5012550;28;20492;-59
2022/03/18 04:50:45;;;;;;;2.72;1.30;;;20.00;46.80;;;;;;5012732;28;20088;-59
2022/03/18 04:53:11;;;;;;;2.92;1.20;;;20.00;46.70;;;;;;5012648;28;20133;-59
2022/03/18 04:55:36;;;;;;;4.07;1.60;;;20.00;46.80;;;;;;5012171;28;20057;-59
2022/03/18 04:58:02;;;;;;;2.78;1.38;;;20.00;46.70;;;;;;5013099;28;20048;-59
2022/03/18 05:00:28;;;;;;;4.53;1.30;;;20.00;46.70;;;;;;5007252;28;20077;-59
2022/03/18 05:02:55;;;;;;;4.25;1.60;;;20.00;46.70;;;;;;4975617;28;20082;-59
2022/03/18 05:05:21;;;;;;;4.60;1.50;;;20.00;46.70;;;;;;4991189;28;20030;-59
2022/03/18 05:07:48;;;;;;;3.65;1.30;;;20.00;46.70;;;;;;4993260;28;20046;-59
2022/03/18 05:10:14;;;;;;;3.75;1.38;;;20.00;46.70;;;;;;4996264;28;20035;-59
2022/03/18 05:12:39;;;;;;;3.00;1.25;;;20.00;46.70;;;;;;4997046;28;20088;-59
2022/03/18 05:15:06;;;;;;;3.95;1.85;;;20.00;46.70;;;;;;4997095;28;20050;-59
2022/03/18 05:17:31;;;;;;;3.08;1.23;;;20.00;46.70;;;;;;4996382;28;20042;-59
2022/03/18 05:19:57;;;;;;;2.67;1.33;;;20.10;46.70;;;;;;4997036;28;20478;-59
2022/03/18 05:22:22;;;;;;;3.67;1.35;;;20.00;46.60;;;;;;4997061;28;20061;-59
2022/03/18 05:24:48;;;;;;;3.33;1.30;;;20.10;46.70;;;;;;4996797;28;20062;-59
2022/03/18 05:27:13;;;;;;;3.92;1.40;;;20.10;46.70;;;;;;4996871;28;20152;-59
2022/03/18 05:29:39;;;;;;;4.20;1.83;;;20.00;46.60;;;;;;4997191;28;20057;-59
2022/03/18 05:32:05;;;;;;;5.10;1.45;;;20.10;46.60;;;;;;4995617;28;20553;-59
2022/03/18 05:34:32;;;;;;;2.92;1.30;;;20.10;46.60;;;;;;4996735;28;20386;-59
2022/03/18 05:36:57;;;;;;;3.40;1.33;;;20.10;46.60;;;;;;4996931;28;20096;-59
2022/03/18 05:39:23;;;;;;;4.72;1.58;;;20.10;46.70;;;;;;4995637;28;20054;-59
2022/03/18 05:41:48;;;;;;;4.82;1.45;;;20.10;46.60;;;;;;4996840;28;20089;-59
2022/03/18 05:44:14;;;;;;;4.38;1.73;;;20.10;46.60;;;;;;4996599;28;20459;-59
2022/03/18 05:46:39;;;;;;;4.30;1.50;;;20.10;47.30;;;;;;4995928;28;20070;-58
2022/03/18 05:49:05;;;;;;;3.55;1.35;;;20.10;46.60;;;;;;4996558;28;20043;-59
2022/03/18 05:51:31;;;;;;;3.53;1.27;;;20.10;46.60;;;;;;4996488;28;20050;-59
2022/03/18 05:53:56;;;;;;;4.88;1.45;;;20.10;46.50;;;;;;4995868;28;20127;-59
2022/03/18 05:59:07;;;;;;;4.45;1.80;;;20.10;46.50;;;;;;4995437;28;20125;-59
2022/03/18 06:01:37;;;;;;;5.13;1.40;;;20.10;46.60;;;;;;4995249;28;20126;-59
2022/03/18 06:04:04;;;;;;;4.75;1.20;;;20.10;46.60;;;;;;4996233;28;20045;-58
2022/03/18 06:06:29;;;;;;;4.15;1.40;;;20.20;46.60;;;;;;4999525;28;20050;-59
2022/03/18 06:11:48;;;;;;;3.22;1.30;;;20.20;46.50;;;;;;5015774;28;20065;-58
2022/03/18 06:14:14;;;;;;;4.63;1.55;;;20.20;46.50;;;;;;5014759;28;20057;-59
2022/03/18 06:16:40;;;;;;;5.70;2.45;;;20.20;46.60;;;;;;5015762;28;20072;-59
2022/03/18 06:19:06;;;;;;;5.63;2.10;;;20.20;46.60;;;;;;5014740;28;20505;-59
2022/03/18 06:21:32;;;;;;;7.85;2.20;;;20.20;46.60;;;;;;5014707;28;20060;-59
2022/03/18 06:23:57;;;;;;;6.25;2.28;;;20.20;46.60;;;;;;5015753;28;20134;-59
2022/03/18 06:26:23;;;;;;;6.80;2.60;;;20.20;46.70;;;;;;5015024;28;20057;-59
2022/03/18 06:28:49;;;;;;;8.48;2.35;;;20.20;46.70;;;;;;5014931;28;20046;-59
2022/03/18 06:31:14;;;;;;;7.25;2.38;;;20.20;46.80;;;;;;5015159;28;20046;-59
2022/03/18 06:33:44;;;;;;;6.53;2.40;;;20.20;46.80;;;;;;5015206;28;20049;-59
2022/03/18 06:36:10;;;;;;;6.35;2.40;;;20.20;46.90;;;;;;5012937;28;20049;-59
2022/03/18 06:38:36;;;;;;;8.15;2.20;;;20.20;46.90;;;;;;4995662;28;20042;-59
2022/03/18 06:41:01;;;;;;;6.20;2.70;;;20.30;47.10;;;;;;4994354;28;20133;-59
2022/03/18 06:43:27;;;;;;;7.25;2.55;;;20.30;47.30;;;;;;4995413;28;20070;-59
2022/03/18 06:45:52;;;;;;;7.07;2.33;;;20.30;47.50;;;;;;4995449;28;20129;-59
2022/03/18 06:48:18;;;;;;;5.80;2.28;;;20.30;47.50;;;;;;4994581;28;20509;-59
2022/03/18 06:50:43;;;;;;;5.63;2.40;;;20.30;47.70;;;;;;4995444;28;20050;-59
2022/03/18 06:53:09;;;;;;;7.35;2.88;;;20.30;47.70;;;;;;4995117;28;20144;-60
2022/03/18 06:55:35;;;;;;;7.18;2.42;;;20.30;47.60;;;;;;4994408;28;20049;-60
2022/03/18 06:58:01;;;;;;;4.25;2.08;;;20.40;47.80;;;;;;4995413;28;20042;-60
2022/03/18 07:00:26;;;;;;;7.63;2.63;;;20.40;47.80;;;;;;4995210;28;20038;-60
2022/03/18 07:02:53;;;;;;;6.32;2.63;;;20.40;47.90;;;;;;4994207;28;20124;-60
2022/03/18 07:05:18;;;;;;;6.50;2.20;;;20.40;47.90;;;;;;4995047;28;20069;-59
2022/03/18 07:07:44;;;;;;;5.35;2.28;;;20.40;47.90;;;;;;4995287;28;20470;-60
2022/03/18 07:10:12;;;;;;;5.68;2.05;;;20.40;47.90;;;;;;5001909;28;20053;-61
2022/03/18 07:12:38;;;;;;;5.22;2.38;;;20.40;47.90;;;;;;5014083;28;20045;-59
2022/03/18 07:15:04;;;;;;;5.75;2.25;;;20.50;48.00;;;;;;5013133;28;20037;-59
2022/03/18 07:20:14;;;;;;;4.78;1.88;;;20.50;48.00;;;;;;5014324;28;20049;-60
2022/03/18 07:22:40;;;;;;;7.07;2.22;;;20.50;48.00;;;;;;5014291;28;20136;-59
2022/03/18 07:25:06;;;;;;;5.65;2.28;;;20.50;48.20;;;;;;5013492;28;20049;-60
2022/03/18 07:27:32;;;;;;;7.07;2.42;;;20.50;48.20;;;;;;5014473;28;20124;-59
2022/03/18 07:29:58;;;;;;;4.85;1.80;;;20.50;48.30;;;;;;5008735;28;20038;-59
2022/03/18 07:32:23;;;;;;;6.22;2.03;;;20.60;48.60;;;;;;4992933;28;20058;-59
2022/03/18 07:34:49;;;;;;;7.03;2.33;;;20.60;48.50;;;;;;4994440;28;20042;-60
2022/03/18 07:37:14;;;;;;;6.72;2.30;;;20.60;48.60;;;;;;4993068;28;20038;-59
2022/03/18 07:39:40;;;;;;;5.85;1.92;;;20.60;48.60;;;;;;4998014;28;20831;-60
2022/03/18 07:42:05;;;;;;;6.63;2.15;;;20.60;48.70;;;;;;5007723;28;20089;-60
2022/03/18 07:44:31;;;;;;;6.65;2.30;;;20.70;48.80;;;;;;5013301;28;20145;-60
2022/03/18 07:46:57;;;;;;;6.47;2.20;;;20.70;48.80;;;;;;5012335;28;20053;-60
2022/03/18 07:49:22;;;;;;;4.40;1.73;;;20.70;48.90;;;;;;5013458;28;20042;-59
2022/03/18 07:51:48;;;;;;;6.13;1.80;;;20.70;48.90;;;;;;5012603;28;20129;-59
2022/03/18 07:54:13;;;;;;;4.07;1.60;;;20.70;48.90;;;;;;5013416;28;20092;-60
2022/03/18 07:56:39;;;;;;;4.63;1.75;;;20.70;49.00;;;;;;5013820;28;20046;-59
2022/03/18 07:59:04;;;;;;;4.68;1.80;;;20.70;49.00;;;;;;5012514;28;20041;-59
2022/03/18 08:01:30;;;;;;;6.05;1.88;;;20.80;49.00;;;;;;5013958;28;20046;-59
2022/03/18 08:03:55;;;;;;;4.65;1.80;;;20.80;49.00;;;;;;5027563;28;20520;-59
2022/03/18 08:06:21;;;;;;;4.05;1.80;;;20.80;49.00;;;;;;5012627;28;20041;-60
2022/03/18 08:08:46;;;;;;;9.20;2.08;;;20.80;49.00;;;;;;5013643;28;20052;-60
2022/03/18 08:11:12;;;;;;;3.65;1.70;;;20.90;49.10;;;;;;5007999;28;20053;-59
2022/03/18 08:13:38;;;;;;;7.15;2.15;;;20.90;49.20;;;;;;4993245;28;20038;-59
2022/03/18 08:16:04;;;;;;;4.90;1.70;;;20.90;49.30;;;;;;4993438;28;20058;-60
2022/03/18 08:18:30;;;;;;;4.70;2.00;;;20.90;49.30;;;;;;4993342;28;20121;-59
2022/03/18 08:20:55;;;;;;;5.10;2.22;;;20.90;49.30;;;;;;4992879;28;20601;-59
2022/03/18 08:23:23;;;;;;;5.10;2.03;;;21.00;49.30;;;;;;4993517;28;20046;-59
2022/03/18 08:25:48;;;;;;;3.90;1.73;;;21.00;49.40;;;;;;4977990;28;20051;-59
2022/03/18 08:28:14;;;;;;;4.60;1.67;;;21.00;49.40;;;;;;4992321;28;20758;-59
2022/03/18 08:30:40;;;;;;;4.35;1.90;;;21.00;49.40;;;;;;4993089;28;20046;-59
2022/03/18 08:33:05;;;;;;;4.47;1.90;;;21.00;49.50;;;;;;4993221;28;20042;-59
2022/03/18 08:35:31;;;;;;;7.28;1.80;;;21.10;49.50;;;;;;4992750;28;20042;-59
2022/03/18 08:37:57;;;;;;;4.68;1.70;;;21.10;49.60;;;;;;4993685;28;20042;-59
2022/03/18 08:40:32;;;;;;;4.57;1.83;;;21.10;49.60;;;;;;4993029;28;20064;-59
2022/03/18 08:42:58;;;;;;;5.70;1.60;;;21.10;49.60;;;;;;4993284;28;20050;-59
2022/03/18 08:45:24;;;;;;;4.72;1.77;;;21.20;49.70;;;;;;4992363;28;20522;-59
2022/03/18 08:47:50;;;;;;;6.03;1.70;;;21.20;49.70;;;;;;4992750;28;20924;-59
2022/03/18 08:50:15;;;;;;;6.45;2.15;;;21.20;49.70;;;;;;4992143;28;20042;-59
2022/03/18 08:52:41;;;;;;;5.30;1.58;;;21.20;49.70;;;;;;4993536;28;20049;-59
2022/03/18 08:55:07;;;;;;;4.13;1.55;;;21.20;49.70;;;;;;4992211;28;20049;-59
2022/03/18 08:57:36;;;;;;;5.68;1.60;;;21.20;49.70;;;;;;4993063;28;20442;-59
2022/03/18 09:00:05;;;;;;;4.78;1.60;;;21.30;49.80;;;;;;4993148;28;20474;-59
2022/03/18 09:02:30;;;;;;;3.45;1.33;;;21.30;49.80;;;;;;4992591;28;20116;-59
2022/03/18 09:04:56;;;;;;;4.50;1.92;;;21.30;49.80;;;;;;4993411;28;20370;-59
2022/03/18 09:07:21;;;;;;;3.70;1.67;;;21.30;49.80;;;;;;4992307;28;20878;-59
2022/03/18 09:09:47;;;;;;;3.55;1.40;;;21.30;49.90;;;;;;4992371;28;20038;-59
2022/03/18 09:12:12;;;;;;;2.97;1.50;;;21.30;49.90;;;;;;4992725;28;20572;-59
2022/03/18 09:14:38;;;;;;;6.50;1.60;;;21.30;49.80;;;;;;5008224;28;20046;-59
2022/03/18 09:17:05;;;;;;;4.18;1.45;;;21.30;49.90;;;;;;4991302;28;20054;-59
2022/03/18 09:19:30;;;;;;;4.13;1.67;;;21.30;49.90;;;;;;4993018;28;20074;-59
2022/03/18 09:21:56;;;;;;;6.55;1.45;;;21.30;50.00;;;;;;4992905;28;20124;-59
2022/03/18 09:24:21;;;;;;;6.72;1.83;;;21.30;50.00;;;;;;4992064;28;20074;-59
2022/03/18 09:26:46;;;;;;;5.13;1.55;;;21.30;50.00;;;;;;5008183;28;20129;-59
2022/03/18 09:29:12;;;;;;;4.07;1.73;;;21.30;50.00;;;;;;5012224;28;20044;-59
2022/03/18 09:31:38;;;;;;;3.25;1.50;;;21.40;50.00;;;;;;5012058;28;20059;-59
2022/03/18 09:34:03;;;;;;;3.20;1.40;;;21.40;50.00;;;;;;5008875;28;20093;-59
2022/03/18 09:36:31;;;;;;;3.97;1.50;;;21.40;50.10;;;;;;4997886;28;20042;-59
2022/03/18 09:38:56;;;;;;;5.03;1.17;;;21.40;50.10;;;;;;5011786;28;20041;-59
2022/03/18 09:41:22;;;;;;;2.78;1.23;;;21.40;50.10;;;;;;4988530;28;20078;-58
2022/03/18 09:43:47;;;;;;;4.03;1.50;;;21.40;50.20;;;;;;4975785;28;20149;-59
2022/03/18 09:46:14;;;;;;;3.35;1.40;;;21.40;50.10;;;;;;4987188;28;20039;-59
2022/03/18 09:48:40;;;;;;;5.60;1.52;;;21.40;50.00;;;;;;4972323;28;20528;-60
2022/03/18 09:51:06;;;;;;;4.53;1.80;;;21.40;49.90;;;;;;4973903;28;20038;-60
2022/03/18 09:53:34;;;;;;;3.95;1.30;;;21.40;49.80;;;;;;4976681;28;20054;-59
2022/03/18 09:56:00;;;;;;;8.20;1.45;;;21.40;49.80;;;;;;4975326;28;20487;-59
2022/03/18 09:58:25;;;;;;;4.50;1.70;;;21.40;49.70;;;;;;4976245;28;20045;-60
2022/03/18 10:00:51;;;;;;;2.95;1.33;;;21.40;49.60;;;;;;4977655;28;20105;-59
2022/03/18 10:03:17;;;;;;;5.82;1.50;;;21.40;49.60;;;;;;4980806;28;20101;-59
2022/03/18 10:05:54;;;;;;;4.40;1.60;;;21.40;49.60;;;;;;4975521;28;20039;-59
2022/03/18 10:08:21;;;;;;;6.15;1.40;;;21.30;49.50;;;;;;4975995;28;20035;-59
2022/03/18 10:10:47;;;;;;;5.88;1.92;;;21.40;49.50;;;;;;4981052;28;20425;-59
2022/03/18 10:13:13;;;;;;;7.43;2.50;;;21.40;49.50;;;;;;4992503;28;20118;-60
2022/03/18 10:15:38;;;;;;;6.60;2.25;;;21.30;49.70;;;;;;5013870;28;20379;-60
2022/03/18 10:18:04;;;;;;;7.32;2.40;;;21.30;49.90;;;;;;5014613;28;20070;-60
2022/03/18 10:20:34;;;;;;;6.25;2.35;;;21.30;50.00;;;;;;5014746;28;20073;-60
2022/03/18 10:23:15;;;;;;;5.38;2.25;;;21.30;50.10;;;;;;5015555;28;20046;-60
2022/03/18 10:25:46;;;;;;;7.97;2.58;;;21.40;50.20;;;;;;5015545;28;20046;-60
2022/03/18 10:28:11;;;;;;;6.53;2.40;;;21.30;50.20;;;;;;5013648;28;20038;-60
2022/03/18 10:30:37;;;;;;;6.15;2.35;;;21.30;50.80;;;;;;5015759;28;20045;-59
2022/03/18 10:33:03;;;;;;;5.50;2.40;;;21.30;50.10;;;;;;5014643;28;20107;-60
2022/03/18 10:38:34;;;;;;;6.97;2.58;;;21.40;50.30;;;;;;5008069;28;20450;-60
2022/03/18 10:41:07;;;;;;;9.50;2.60;;;21.30;50.30;;;;;;4994312;28;20058;-59
2022/03/18 10:43:51;;;;;;;7.38;3.00;;;21.40;50.40;;;;;;4996789;28;20050;-59
2022/03/18 10:46:17;;;;;;;5.32;2.53;;;21.30;50.40;;;;;;4994368;28;20077;-60
2022/03/18 10:48:59;;;;;;;8.38;2.15;;;21.30;50.40;;;;;;4995080;28;20089;-59
2022/03/18 10:51:25;;;;;;;9.30;2.30;;;21.40;50.60;;;;;;4984922;28;20417;-60
2022/03/18 10:53:54;;;;;;;9.57;2.30;;;21.30;50.70;;;;;;4995020;28;20486;-60
2022/03/18 10:56:20;;;;;;;8.88;2.58;;;21.40;51.00;;;;;;4993775;28;20051;-59
2022/03/18 10:58:45;;;;;;;8.18;2.15;;;21.30;50.90;;;;;;4995036;28;20050;-60
2022/03/18 11:01:12;;;;;;;5.80;2.03;;;21.30;51.00;;;;;;4993681;28;20073;-59
2022/03/18 11:03:37;;;;;;;7.35;2.72;;;21.40;51.10;;;;;;4993684;28;20050;-59
2022/03/18 11:06:03;;;;;;;7.57;2.40;;;21.30;51.10;;;;;;5001037;28;20049;-59
2022/03/18 11:08:38;;;;;;;6.90;2.30;;;21.40;51.20;;;;;;4995619;28;20618;-59
2022/03/18 11:11:07;;;;;;;9.20;2.40;;;21.40;51.20;;;;;;4985925;28;20046;-59
2022/03/18 11:13:52;;;;;;;4.97;2.33;;;21.40;51.20;;;;;;4975863;28;20042;-59
2022/03/18 11:16:31;;;;;;;5.43;2.30;;;21.40;51.20;;;;;;4959539;28;20398;-59
2022/03/18 11:19:01;;;;;;;5.88;2.05;;;21.40;51.20;;;;;;4987774;28;20451;-59
2022/03/18 11:21:38;;;;;;;6.65;2.35;;;21.40;51.20;;;;;;4994675;28;20101;-59
2022/03/18 11:24:07;;;;;;;6.75;2.13;;;21.40;51.20;;;;;;4993928;28;20071;-59
2022/03/18 11:26:34;;;;;;;8.68;2.30;;;21.40;51.20;;;;;;4993697;28;20526;-59
2022/03/18 11:29:11;;;;;;;7.68;2.00;;;21.40;51.20;;;;;;4993774;28;20134;-59
2022/03/18 11:31:37;;;;;;;6.03;2.50;;;21.40;51.30;;;;;;4993970;28;20533;-59
2022/03/18 11:34:10;;;;;;;5.93;2.10;;;21.40;51.30;;;;;;4994641;28;20077;-59
2022/03/18 11:36:37;;;;;;;5.32;1.77;;;21.40;51.40;;;;;;4992356;28;20049;-59
2022/03/18 11:39:06;;;;;;;8.43;2.05;;;21.40;51.20;;;;;;5008030;28;20073;-59
2022/03/18 11:41:55;;;;;;;6.20;2.00;;;21.40;51.10;;;;;;5014123;28;20054;-59
2022/03/18 11:44:36;;;;;;;5.30;1.95;;;21.40;50.80;;;;;;5013139;28;20100;-59
2022/03/18 11:47:20;;;;;;;4.90;1.90;;;21.40;50.90;;;;;;4974896;28;20055;-59
2022/03/18 11:49:49;;;;;;;8.40;2.13;;;21.40;50.90;;;;;;4974840;28;20071;-59
2022/03/18 11:52:14;;;;;;;4.30;1.60;;;21.40;50.90;;;;;;4973924;28;20521;-60
2022/03/18 11:54:49;;;;;;;4.45;1.85;;;21.40;50.90;;;;;;4974980;28;20043;-60
2022/03/18 11:57:34;;;;;;;5.25;1.58;;;21.40;51.00;;;;;;4974635;28;20050;-60
2022/03/18 12:00:05;;;;;;;4.90;1.85;;;21.50;51.10;;;;;;4974881;28;20047;-59
2022/03/18 12:02:32;;;;;;;5.15;1.77;;;21.40;51.00;;;;;;4978619;28;20490;-59
2022/03/18 12:04:58;;;;;;;5.60;1.98;;;21.40;51.00;;;;;;4993217;28;20038;-58
2022/03/18 12:07:29;;;;;;;6.00;1.90;;;21.40;50.90;;;;;;4992795;28;20418;-59
2022/03/18 12:10:04;;;;;;;5.18;2.22;;;21.40;50.70;;;;;;4974585;28;20055;-60
2022/03/18 12:12:43;;;;;;;3.70;1.45;;;21.40;50.90;;;;;;4996949;28;20049;-59
2022/03/18 12:15:17;;;;;;;5.70;1.73;;;21.50;51.00;;;;;;5013251;28;20081;-59
2022/03/18 12:17:44;;;;;;;7.35;1.88;;;21.40;51.00;;;;;;5013218;28;20092;-59
2022/03/18 12:20:12;;;;;;;5.28;1.23;;;21.40;51.00;;;;;;5012541;28;20153;-60
2022/03/18 12:22:38;;;;;;;7.65;1.73;;;21.40;51.00;;;;;;4993990;28;20047;-59
2022/03/18 12:25:04;;;;;;;4.50;1.48;;;21.50;51.10;;;;;;4993550;28;20172;-59
2022/03/18 12:27:33;;;;;;;6.20;1.45;;;21.50;51.10;;;;;;4998792;28;20076;-60
2022/03/18 12:30:02;;;;;;;5.18;1.90;;;21.50;51.10;;;;;;5013136;28;20540;-59
2022/03/18 12:32:28;;;;;;;3.45;1.20;;;21.50;51.00;;;;;;5008067;28;20054;-60
2022/03/18 12:34:54;;;;;;;4.90;1.45;;;21.50;51.00;;;;;;5012271;28;20064;-59
2022/03/18 12:37:22;;;;;;;4.32;1.77;;;21.50;51.00;;;;;;5012835;28;20045;-59
2022/03/18 12:40:19;;;;;;;5.50;1.88;;;21.50;51.00;;;;;;4990648;28;20050;-60
2022/03/18 12:42:46;;;;;;;4.47;1.38;;;21.50;50.90;;;;;;4956906;28;20054;-60
2022/03/18 12:45:12;;;;;;;3.10;1.50;;;21.50;50.90;;;;;;4992175;28;20486;-60
2022/03/18 12:47:37;;;;;;;4.95;1.35;;;21.50;50.90;;;;;;4992403;28;20039;-60
2022/03/18 12:50:04;;;;;;;4.25;1.55;;;21.50;50.90;;;;;;4992741;28;20034;-59
2022/03/18 12:52:29;;;;;;;4.75;1.52;;;21.60;51.00;;;;;;4992945;28;20046;-60
2022/03/18 12:55:09;;;;;;;5.78;2.03;;;21.60;51.00;;;;;;4992450;28;20039;-59
2022/03/18 12:57:38;;;;;;;6.78;1.45;;;21.60;50.90;;;;;;4993490;28;20046;-58
2022/03/18 13:00:08;;;;;;;5.88;1.40;;;21.60;50.90;;;;;;4992859;28;20087;-58
2022/03/18 13:02:34;;;;;;;6.00;1.50;;;21.60;50.80;;;;;;4992480;28;20413;-58